sensor_id;sensor_type;location;lat;lon;timestamp;temperature;humidity
15115;DHT22;7658;51.456;7.622;2023-01-29T00:01:28;-3.70;99.90
15115;DHT22;7658;51.456;7.622;2023-01-29T00:03:55;-3.70;99.90
15115;DHT22;7658;51.456;7.622;2023-01-29T00:06:21;-3.70;99.90
15115;DHT22;7658;51.456;7.622;2023-01-29T00:08:48;-3.70;99.90
15115;DHT22;7658;51.456;7.622;2023-01-29T00:11:14;-3.70;99.90
15115;DHT22;7658;51.456;7.622;2023-01-29T00:13:41;-3.80;99.90
15115;DHT22;7658;51.456;7.622;2023-01-29T00:16:07;-3.80;99.90
15115;DHT22;7658;51.456;7.622;2023-01-29T00:18:36;-3.70;99.90
15115;DHT22;7658;51.456;7.622;2023-01-29T00:21:02;-3.70;99.90
15115;DHT22;7658;51.456;7.622;2023-01-29T00:23:27;-3.70;99.90
15115;DHT22;7658;51.456;7.622;2023-01-29T00:25:53;-3.70;99.90
15115;DHT22;7658;51.456;7.622;2023-01-29T00:28:19;-3.70;99.90
15115;DHT22;7658;51.456;7.622;2023-01-29T00:30:45;-3.60;99.90
15115;DHT22;7658;51.456;7.622;2023-01-29T00:33:11;-3.60;99.90
15115;DHT22;7658;51.456;7.622;2023-01-29T00:35:40;-3.60;99.90
15115;DHT22;7658;51.456;7.622;2023-01-29T00:38:06;-3.60;99.90
15115;DHT22;7658;51.456;7.622;2023-01-29T00:40:32;-3.60;99.90
15115;DHT22;7658;51.456;7.622;2023-01-29T00:43:21;-3.60;99.90
15115;DHT22;7658;51.456;7.622;2023-01-29T00:46:05;-3.70;99.90
15115;DHT22;7658;51.456;7.622;2023-01-29T00:48:31;-3.70;99.90
15115;DHT22;7658;51.456;7.622;2023-01-29T00:50:57;-3.70;99.90
15115;DHT22;7658;51.456;7.622;2023-01-29T00:53:23;-3.70;99.90
15115;DHT22;7658;51.456;7.622;2023-01-29T00:55:49;-3.80;99.90
15115;DHT22;7658;51.456;7.622;2023-01-29T00:58:14;-3.80;99.90
15115;DHT22;7658;51.456;7.622;2023-01-29T01:00:47;-3.80;99.90
15115;DHT22;7658;51.456;7.622;2023-01-29T01:03:14;-3.90;99.90
15115;DHT22;7658;51.456;7.622;2023-01-29T01:05:40;-4.00;99.90
15115;DHT22;7658;51.456;7.622;2023-01-29T01:08:08;-4.00;99.90
15115;DHT22;7658;51.456;7.622;2023-01-29T01:11:02;-4.00;99.90
15115;DHT22;7658;51.456;7.622;2023-01-29T01:13:30;-4.00;99.90
15115;DHT22;7658;51.456;7.622;2023-01-29T01:15:56;-3.90;99.90
15115;DHT22;7658;51.456;7.622;2023-01-29T01:18:21;-3.90;99.90
15115;DHT22;7658;51.456;7.622;2023-01-29T01:20:47;-4.00;99.90
15115;DHT22;7658;51.456;7.622;2023-01-29T01:23:17;-4.00;99.90
15115;DHT22;7658;51.456;7.622;2023-01-29T01:25:43;-4.10;99.90
15115;DHT22;7658;51.456;7.622;2023-01-29T01:28:09;-4.20;99.90
15115;DHT22;7658;51.456;7.622;2023-01-29T01:30:35;-4.30;99.90
15115;DHT22;7658;51.456;7.622;2023-01-29T01:33:01;-4.30;99.90
15115;DHT22;7658;51.456;7.622;2023-01-29T01:35:27;-4.30;99.90
15115;DHT22;7658;51.456;7.622;2023-01-29T01:37:53;-4.30;99.90
15115;DHT22;7658;51.456;7.622;2023-01-29T01:40:20;-4.40;99.90
15115;DHT22;7658;51.456;7.622;2023-01-29T01:42:51;-4.40;99.90
15115;DHT22;7658;51.456;7.622;2023-01-29T01:45:26;-4.40;99.90
15115;DHT22;7658;51.456;7.622;2023-01-29T01:50:38;-4.30;99.90
15115;DHT22;7658;51.456;7.622;2023-01-29T01:53:12;-4.30;99.90
15115;DHT22;7658;51.456;7.622;2023-01-29T01:55:44;-4.20;99.90
15115;DHT22;7658;51.456;7.622;2023-01-29T01:58:58;-4.10;99.90
15115;DHT22;7658;51.456;7.622;2023-01-29T02:01:00;-4.10;99.90
15115;DHT22;7658;51.456;7.622;2023-01-29T02:03:27;-4.10;99.90
15115;DHT22;7658;51.456;7.622;2023-01-29T02:06:14;-4.00;99.90
15115;DHT22;7658;51.456;7.622;2023-01-29T02:09:02;-4.00;99.90
15115;DHT22;7658;51.456;7.622;2023-01-29T02:11:47;-4.00;99.90
15115;DHT22;7658;51.456;7.622;2023-01-29T02:14:13;-4.00;99.90
15115;DHT22;7658;51.456;7.622;2023-01-29T02:16:39;-4.00;99.90
15115;DHT22;7658;51.456;7.622;2023-01-29T02:19:15;-4.10;99.90
15115;DHT22;7658;51.456;7.622;2023-01-29T02:24:35;-4.20;99.90
15115;DHT22;7658;51.456;7.622;2023-01-29T02:27:09;-4.20;99.90
15115;DHT22;7658;51.456;7.622;2023-01-29T02:29:54;-4.20;99.90
15115;DHT22;7658;51.456;7.622;2023-01-29T02:35:49;-4.30;99.90
15115;DHT22;7658;51.456;7.622;2023-01-29T02:43:50;-4.50;99.90
15115;DHT22;7658;51.456;7.622;2023-01-29T02:46:39;-4.50;99.90
15115;DHT22;7658;51.456;7.622;2023-01-29T02:49:30;-4.50;99.90
15115;DHT22;7658;51.456;7.622;2023-01-29T02:54:52;-4.50;99.90
15115;DHT22;7658;51.456;7.622;2023-01-29T02:57:22;-4.50;99.90
15115;DHT22;7658;51.456;7.622;2023-01-29T03:05:27;-4.40;99.90
15115;DHT22;7658;51.456;7.622;2023-01-29T03:07:59;-4.40;99.90
15115;DHT22;7658;51.456;7.622;2023-01-29T03:10:34;-4.40;99.90
15115;DHT22;7658;51.456;7.622;2023-01-29T03:13:11;-4.40;99.90
15115;DHT22;7658;51.456;7.622;2023-01-29T03:15:42;-4.40;99.90
15115;DHT22;7658;51.456;7.622;2023-01-29T03:18:14;-4.40;99.90
15115;DHT22;7658;51.456;7.622;2023-01-29T03:20:46;-4.40;99.90
15115;DHT22;7658;51.456;7.622;2023-01-29T03:23:21;-4.40;99.90
15115;DHT22;7658;51.456;7.622;2023-01-29T03:25:53;-4.40;99.90
15115;DHT22;7658;51.456;7.622;2023-01-29T03:28:41;-4.30;99.90
15115;DHT22;7658;51.456;7.622;2023-01-29T03:31:27;-4.30;99.90
15115;DHT22;7658;51.456;7.622;2023-01-29T03:34:19;-4.30;99.90
15115;DHT22;7658;51.456;7.622;2023-01-29T03:37:02;-4.30;99.90
15115;DHT22;7658;51.456;7.622;2023-01-29T03:39:32;-4.20;99.90
15115;DHT22;7658;51.456;7.622;2023-01-29T03:42:08;-4.10;99.90
15115;DHT22;7658;51.456;7.622;2023-01-29T03:44:39;-4.10;99.90
15115;DHT22;7658;51.456;7.622;2023-01-29T03:55:02;-4.20;99.90
15115;DHT22;7658;51.456;7.622;2023-01-29T03:57:45;-4.20;99.90
15115;DHT22;7658;51.456;7.622;2023-01-29T04:00:20;-4.20;99.90
15115;DHT22;7658;51.456;7.622;2023-01-29T04:03:12;-4.10;99.90
15115;DHT22;7658;51.456;7.622;2023-01-29T04:05:52;-4.10;99.90
15115;DHT22;7658;51.456;7.622;2023-01-29T04:08:28;-4.00;99.90
15115;DHT22;7658;51.456;7.622;2023-01-29T04:10:58;-4.00;99.90
15115;DHT22;7658;51.456;7.622;2023-01-29T04:13:26;-4.10;99.90
15115;DHT22;7658;51.456;7.622;2023-01-29T04:15:58;-4.10;99.90
15115;DHT22;7658;51.456;7.622;2023-01-29T04:18:26;-4.10;99.90
15115;DHT22;7658;51.456;7.622;2023-01-29T04:20:52;-4.10;99.90
15115;DHT22;7658;51.456;7.622;2023-01-29T04:23:26;-4.00;99.90
15115;DHT22;7658;51.456;7.622;2023-01-29T04:29:32;-4.00;99.90
15115;DHT22;7658;51.456;7.622;2023-01-29T04:37:26;-4.10;99.90
15115;DHT22;7658;51.456;7.622;2023-01-29T04:40:25;-4.10;99.90
15115;DHT22;7658;51.456;7.622;2023-01-29T04:43:25;-4.10;99.90
15115;DHT22;7658;51.456;7.622;2023-01-29T04:54:01;-4.00;99.90
15115;DHT22;7658;51.456;7.622;2023-01-29T04:56:39;-3.90;99.90
15115;DHT22;7658;51.456;7.622;2023-01-29T04:59:08;-3.90;99.90
15115;DHT22;7658;51.456;7.622;2023-01-29T05:01:37;-3.90;99.90
15115;DHT22;7658;51.456;7.622;2023-01-29T05:04:14;-3.80;99.90
15115;DHT22;7658;51.456;7.622;2023-01-29T05:06:42;-3.70;99.90
15115;DHT22;7658;51.456;7.622;2023-01-29T05:09:12;-3.80;99.90
15115;DHT22;7658;51.456;7.622;2023-01-29T05:11:39;-3.70;99.90
15115;DHT22;7658;51.456;7.622;2023-01-29T05:14:07;-3.80;99.90
15115;DHT22;7658;51.456;7.622;2023-01-29T05:16:46;-3.70;99.90
15115;DHT22;7658;51.456;7.622;2023-01-29T05:19:14;-3.70;99.90
15115;DHT22;7658;51.456;7.622;2023-01-29T05:21:42;-3.80;99.90
15115;DHT22;7658;51.456;7.622;2023-01-29T05:26:40;-3.80;99.90
15115;DHT22;7658;51.456;7.622;2023-01-29T05:29:25;-3.80;99.90
15115;DHT22;7658;51.456;7.622;2023-01-29T05:31:50;-3.80;99.90
15115;DHT22;7658;51.456;7.622;2023-01-29T05:34:16;-3.70;99.90
15115;DHT22;7658;51.456;7.622;2023-01-29T05:36:42;-3.70;99.90
15115;DHT22;7658;51.456;7.622;2023-01-29T05:39:07;-3.60;99.90
15115;DHT22;7658;51.456;7.622;2023-01-29T05:41:33;-3.60;99.90
15115;DHT22;7658;51.456;7.622;2023-01-29T05:43:59;-3.50;99.90
15115;DHT22;7658;51.456;7.622;2023-01-29T05:46:24;-3.50;99.90
15115;DHT22;7658;51.456;7.622;2023-01-29T05:48:53;-3.40;99.90
15115;DHT22;7658;51.456;7.622;2023-01-29T05:51:19;-3.40;99.90
15115;DHT22;7658;51.456;7.622;2023-01-29T05:53:45;-3.30;99.90
15115;DHT22;7658;51.456;7.622;2023-01-29T05:56:11;-3.30;99.90
15115;DHT22;7658;51.456;7.622;2023-01-29T05:58:36;-3.20;99.90
15115;DHT22;7658;51.456;7.622;2023-01-29T06:03:34;-3.20;99.90
15115;DHT22;7658;51.456;7.622;2023-01-29T06:06:01;-3.10;99.90
15115;DHT22;7658;51.456;7.622;2023-01-29T06:08:26;-3.10;99.90
15115;DHT22;7658;51.456;7.622;2023-01-29T06:10:52;-3.10;99.90
15115;DHT22;7658;51.456;7.622;2023-01-29T06:13:18;-3.00;99.90
15115;DHT22;7658;51.456;7.622;2023-01-29T06:15:44;-2.90;99.90
15115;DHT22;7658;51.456;7.622;2023-01-29T06:18:09;-2.90;99.90
15115;DHT22;7658;51.456;7.622;2023-01-29T06:20:36;-2.90;99.90
15115;DHT22;7658;51.456;7.622;2023-01-29T06:23:02;-2.80;99.90
15115;DHT22;7658;51.456;7.622;2023-01-29T06:25:27;-2.80;99.90
15115;DHT22;7658;51.456;7.622;2023-01-29T06:27:53;-2.80;99.90
15115;DHT22;7658;51.456;7.622;2023-01-29T06:30:19;-2.70;99.90
15115;DHT22;7658;51.456;7.622;2023-01-29T06:32:44;-2.70;99.90
15115;DHT22;7658;51.456;7.622;2023-01-29T06:35:10;-2.70;99.90
15115;DHT22;7658;51.456;7.622;2023-01-29T06:37:36;-2.60;99.90
15115;DHT22;7658;51.456;7.622;2023-01-29T06:40:02;-2.60;99.90
15115;DHT22;7658;51.456;7.622;2023-01-29T06:42:28;-2.60;99.90
15115;DHT22;7658;51.456;7.622;2023-01-29T06:44:55;-2.60;99.90
15115;DHT22;7658;51.456;7.622;2023-01-29T06:47:21;-2.60;99.90
15115;DHT22;7658;51.456;7.622;2023-01-29T06:49:48;-2.50;99.90
15115;DHT22;7658;51.456;7.622;2023-01-29T06:52:14;-2.60;99.90
15115;DHT22;7658;51.456;7.622;2023-01-29T06:54:40;-2.50;99.90
15115;DHT22;7658;51.456;7.622;2023-01-29T06:57:05;-2.50;99.90
15115;DHT22;7658;51.456;7.622;2023-01-29T06:59:31;-2.50;99.90
15115;DHT22;7658;51.456;7.622;2023-01-29T07:01:57;-2.40;99.90
15115;DHT22;7658;51.456;7.622;2023-01-29T07:04:22;-2.40;99.90
15115;DHT22;7658;51.456;7.622;2023-01-29T07:06:48;-2.40;99.90
15115;DHT22;7658;51.456;7.622;2023-01-29T07:09:14;-2.40;99.90
15115;DHT22;7658;51.456;7.622;2023-01-29T07:11:39;-2.30;99.90
15115;DHT22;7658;51.456;7.622;2023-01-29T07:14:06;-2.30;99.90
15115;DHT22;7658;51.456;7.622;2023-01-29T07:16:32;-2.20;99.90
15115;DHT22;7658;51.456;7.622;2023-01-29T07:18:57;-2.20;99.90
15115;DHT22;7658;51.456;7.622;2023-01-29T07:21:23;-2.20;99.90
15115;DHT22;7658;51.456;7.622;2023-01-29T07:23:49;-2.20;99.90
15115;DHT22;7658;51.456;7.622;2023-01-29T07:26:15;-2.20;99.90
15115;DHT22;7658;51.456;7.622;2023-01-29T07:28:41;-2.10;99.90
15115;DHT22;7658;51.456;7.622;2023-01-29T07:31:07;-2.10;99.90
15115;DHT22;7658;51.456;7.622;2023-01-29T07:33:34;-2.10;99.90
15115;DHT22;7658;51.456;7.622;2023-01-29T07:36:00;-2.00;99.90
15115;DHT22;7658;51.456;7.622;2023-01-29T07:38:26;-2.00;99.90
15115;DHT22;7658;51.456;7.622;2023-01-29T07:40:52;-2.00;99.90
15115;DHT22;7658;51.456;7.622;2023-01-29T07:43:18;-1.90;99.90
15115;DHT22;7658;51.456;7.622;2023-01-29T07:45:43;-1.90;99.90
15115;DHT22;7658;51.456;7.622;2023-01-29T07:48:11;-1.90;99.90
15115;DHT22;7658;51.456;7.622;2023-01-29T07:50:38;-1.80;99.90
15115;DHT22;7658;51.456;7.622;2023-01-29T07:53:04;-1.80;99.90
15115;DHT22;7658;51.456;7.622;2023-01-29T07:55:31;-1.80;99.90
15115;DHT22;7658;51.456;7.622;2023-01-29T07:57:59;-1.80;99.90
15115;DHT22;7658;51.456;7.622;2023-01-29T08:00:25;-1.70;99.90
15115;DHT22;7658;51.456;7.622;2023-01-29T08:02:51;-1.70;99.90
15115;DHT22;7658;51.456;7.622;2023-01-29T08:05:17;-1.70;99.90
15115;DHT22;7658;51.456;7.622;2023-01-29T08:07:43;-1.70;99.90
15115;DHT22;7658;51.456;7.622;2023-01-29T08:10:09;-1.60;99.90
15115;DHT22;7658;51.456;7.622;2023-01-29T08:12:35;-1.60;99.90
15115;DHT22;7658;51.456;7.622;2023-01-29T08:15:01;-1.60;99.90
15115;DHT22;7658;51.456;7.622;2023-01-29T08:17:27;-1.50;99.90
15115;DHT22;7658;51.456;7.622;2023-01-29T08:19:52;-1.50;99.90
15115;DHT22;7658;51.456;7.622;2023-01-29T08:22:18;-1.50;99.90
15115;DHT22;7658;51.456;7.622;2023-01-29T08:24:44;-1.40;99.90
15115;DHT22;7658;51.456;7.622;2023-01-29T08:27:09;-1.40;99.90
15115;DHT22;7658;51.456;7.622;2023-01-29T08:29:35;-1.40;99.90
15115;DHT22;7658;51.456;7.622;2023-01-29T08:32:01;-1.30;99.90
15115;DHT22;7658;51.456;7.622;2023-01-29T08:34:27;-1.30;99.90
15115;DHT22;7658;51.456;7.622;2023-01-29T08:36:52;-1.30;99.90
15115;DHT22;7658;51.456;7.622;2023-01-29T08:39:18;-1.20;99.90
15115;DHT22;7658;51.456;7.622;2023-01-29T08:41:44;-1.10;99.90
15115;DHT22;7658;51.456;7.622;2023-01-29T08:44:10;-1.10;99.90
15115;DHT22;7658;51.456;7.622;2023-01-29T08:46:36;-1.10;99.90
15115;DHT22;7658;51.456;7.622;2023-01-29T08:49:02;-1.10;99.90
15115;DHT22;7658;51.456;7.622;2023-01-29T08:51:28;-1.10;99.90
15115;DHT22;7658;51.456;7.622;2023-01-29T08:53:54;-1.10;99.90
15115;DHT22;7658;51.456;7.622;2023-01-29T08:56:20;-1.20;99.90
15115;DHT22;7658;51.456;7.622;2023-01-29T08:58:45;-1.20;99.90
15115;DHT22;7658;51.456;7.622;2023-01-29T09:01:13;-1.10;99.90
15115;DHT22;7658;51.456;7.622;2023-01-29T09:03:39;-1.10;99.90
15115;DHT22;7658;51.456;7.622;2023-01-29T09:06:12;-1.10;99.90
15115;DHT22;7658;51.456;7.622;2023-01-29T09:08:39;-1.00;99.90
15115;DHT22;7658;51.456;7.622;2023-01-29T09:11:05;-1.00;99.90
15115;DHT22;7658;51.456;7.622;2023-01-29T09:13:31;-0.90;99.90
15115;DHT22;7658;51.456;7.622;2023-01-29T09:15:59;-0.90;99.90
15115;DHT22;7658;51.456;7.622;2023-01-29T09:18:25;-0.90;99.90
15115;DHT22;7658;51.456;7.622;2023-01-29T09:20:52;-0.90;99.90
15115;DHT22;7658;51.456;7.622;2023-01-29T09:23:18;-0.80;99.90
15115;DHT22;7658;51.456;7.622;2023-01-29T09:25:44;-0.80;99.90
15115;DHT22;7658;51.456;7.622;2023-01-29T09:28:10;-0.70;99.90
15115;DHT22;7658;51.456;7.622;2023-01-29T09:30:36;-0.70;99.90
15115;DHT22;7658;51.456;7.622;2023-01-29T09:33:06;-0.60;99.90
15115;DHT22;7658;51.456;7.622;2023-01-29T09:35:32;-0.60;99.90
15115;DHT22;7658;51.456;7.622;2023-01-29T09:37:59;-0.50;99.90
15115;DHT22;7658;51.456;7.622;2023-01-29T09:43:54;-0.40;99.90
15115;DHT22;7658;51.456;7.622;2023-01-29T09:51:58;-0.20;99.90
15115;DHT22;7658;51.456;7.622;2023-01-29T09:54:35;-0.20;99.90
15115;DHT22;7658;51.456;7.622;2023-01-29T09:57:09;-0.20;99.90
15115;DHT22;7658;51.456;7.622;2023-01-29T09:59:39;-0.20;99.90
15115;DHT22;7658;51.456;7.622;2023-01-29T10:08:00;-0.20;99.90
15115;DHT22;7658;51.456;7.622;2023-01-29T10:10:46;-0.20;99.90
15115;DHT22;7658;51.456;7.622;2023-01-29T10:16:22;-0.20;99.90
15115;DHT22;7658;51.456;7.622;2023-01-29T10:21:40;-0.20;99.90
15115;DHT22;7658;51.456;7.622;2023-01-29T10:27:07;-0.10;99.90
15115;DHT22;7658;51.456;7.622;2023-01-29T10:29:36;0.00;99.90
15115;DHT22;7658;51.456;7.622;2023-01-29T10:32:04;0.00;99.90
15115;DHT22;7658;51.456;7.622;2023-01-29T10:34:41;0.10;99.90
15115;DHT22;7658;51.456;7.622;2023-01-29T10:37:33;0.10;99.90
15115;DHT22;7658;51.456;7.622;2023-01-29T10:40:00;0.10;99.90
15115;DHT22;7658;51.456;7.622;2023-01-29T10:50:16;0.20;99.90
15115;DHT22;7658;51.456;7.622;2023-01-29T11:00:40;0.30;99.90
15115;DHT22;7658;51.456;7.622;2023-01-29T11:03:17;0.30;99.90
15115;DHT22;7658;51.456;7.622;2023-01-29T11:08:30;0.40;99.90
15115;DHT22;7658;51.456;7.622;2023-01-29T11:11:00;0.40;99.90
15115;DHT22;7658;51.456;7.622;2023-01-29T11:16:14;0.50;99.90
15115;DHT22;7658;51.456;7.622;2023-01-29T11:18:57;0.50;99.90
15115;DHT22;7658;51.456;7.622;2023-01-29T11:21:25;0.50;99.90
15115;DHT22;7658;51.456;7.622;2023-01-29T11:24:11;0.60;99.90
15115;DHT22;7658;51.456;7.622;2023-01-29T11:26:41;0.50;99.90
15115;DHT22;7658;51.456;7.622;2023-01-29T11:31:58;0.50;99.90
15115;DHT22;7658;51.456;7.622;2023-01-29T11:34:25;0.50;99.90
15115;DHT22;7658;51.456;7.622;2023-01-29T11:39:23;0.50;99.90
15115;DHT22;7658;51.456;7.622;2023-01-29T11:44:20;0.50;99.90
15115;DHT22;7658;51.456;7.622;2023-01-29T11:46:46;0.50;99.90
15115;DHT22;7658;51.456;7.622;2023-01-29T11:49:31;0.60;99.90
15115;DHT22;7658;51.456;7.622;2023-01-29T11:52:01;0.60;99.90
15115;DHT22;7658;51.456;7.622;2023-01-29T11:54:33;0.60;99.90
15115;DHT22;7658;51.456;7.622;2023-01-29T11:57:02;0.60;99.90
15115;DHT22;7658;51.456;7.622;2023-01-29T11:59:49;0.60;99.90
15115;DHT22;7658;51.456;7.622;2023-01-29T12:02:24;0.70;99.90
15115;DHT22;7658;51.456;7.622;2023-01-29T12:04:54;0.60;99.90
15115;DHT22;7658;51.456;7.622;2023-01-29T12:07:21;0.70;99.90
15115;DHT22;7658;51.456;7.622;2023-01-29T12:09:55;0.60;99.90
15115;DHT22;7658;51.456;7.622;2023-01-29T12:15:18;0.70;99.90
15115;DHT22;7658;51.456;7.622;2023-01-29T12:21:17;0.60;99.90
15115;DHT22;7658;51.456;7.622;2023-01-29T12:24:03;0.70;99.90
15115;DHT22;7658;51.456;7.622;2023-01-29T12:27:07;0.60;99.90
15115;DHT22;7658;51.456;7.622;2023-01-29T12:32:38;0.60;99.90
15115;DHT22;7658;51.456;7.622;2023-01-29T12:38:08;0.70;99.90
15115;DHT22;7658;51.456;7.622;2023-01-29T12:40:55;0.70;99.90
15115;DHT22;7658;51.456;7.622;2023-01-29T12:43:31;0.70;99.90
15115;DHT22;7658;51.456;7.622;2023-01-29T12:45:59;0.80;99.90
15115;DHT22;7658;51.456;7.622;2023-01-29T12:48:31;0.80;99.90
15115;DHT22;7658;51.456;7.622;2023-01-29T12:51:11;0.80;99.90
15115;DHT22;7658;51.456;7.622;2023-01-29T12:59:08;0.80;99.90
15115;DHT22;7658;51.456;7.622;2023-01-29T13:01:42;0.90;99.90
15115;DHT22;7658;51.456;7.622;2023-01-29T13:04:24;0.90;99.90
15115;DHT22;7658;51.456;7.622;2023-01-29T13:06:55;0.90;99.90
15115;DHT22;7658;51.456;7.622;2023-01-29T13:09:26;0.90;99.90
15115;DHT22;7658;51.456;7.622;2023-01-29T13:12:01;0.90;99.90
15115;DHT22;7658;51.456;7.622;2023-01-29T13:14:43;0.90;99.90
15115;DHT22;7658;51.456;7.622;2023-01-29T13:17:45;0.90;99.90
15115;DHT22;7658;51.456;7.622;2023-01-29T13:20:19;0.90;99.90
15115;DHT22;7658;51.456;7.622;2023-01-29T13:22:49;0.90;99.90
15115;DHT22;7658;51.456;7.622;2023-01-29T13:25:18;0.90;99.90
15115;DHT22;7658;51.456;7.622;2023-01-29T13:27:45;0.90;99.90
15115;DHT22;7658;51.456;7.622;2023-01-29T13:30:33;0.90;99.90
15115;DHT22;7658;51.456;7.622;2023-01-29T13:33:02;1.00;99.90
15115;DHT22;7658;51.456;7.622;2023-01-29T13:35:37;0.90;99.90
15115;DHT22;7658;51.456;7.622;2023-01-29T13:38:22;0.90;99.90
15115;DHT22;7658;51.456;7.622;2023-01-29T13:40:49;0.90;99.90
15115;DHT22;7658;51.456;7.622;2023-01-29T13:43:20;1.00;99.90
15115;DHT22;7658;51.456;7.622;2023-01-29T13:45:50;1.00;99.90
15115;DHT22;7658;51.456;7.622;2023-01-29T13:48:27;1.00;99.90
15115;DHT22;7658;51.456;7.622;2023-01-29T13:50:59;1.00;99.90
15115;DHT22;7658;51.456;7.622;2023-01-29T13:53:30;1.00;99.90
15115;DHT22;7658;51.456;7.622;2023-01-29T13:59:02;1.00;99.90
15115;DHT22;7658;51.456;7.622;2023-01-29T14:04:29;1.10;99.90
15115;DHT22;7658;51.456;7.622;2023-01-29T14:06:59;1.10;99.90
15115;DHT22;7658;51.456;7.622;2023-01-29T14:15:00;1.10;99.90
15115;DHT22;7658;51.456;7.622;2023-01-29T14:17:28;1.10;99.90
15115;DHT22;7658;51.456;7.622;2023-01-29T14:20:17;1.10;99.90
15115;DHT22;7658;51.456;7.622;2023-01-29T14:22:43;1.10;99.90
15115;DHT22;7658;51.456;7.622;2023-01-29T14:25:28;1.10;99.90
15115;DHT22;7658;51.456;7.622;2023-01-29T14:27:57;1.10;99.90
15115;DHT22;7658;51.456;7.622;2023-01-29T14:30:24;1.10;99.90
15115;DHT22;7658;51.456;7.622;2023-01-29T14:32:51;1.10;99.90
15115;DHT22;7658;51.456;7.622;2023-01-29T14:35:23;1.20;99.90
15115;DHT22;7658;51.456;7.622;2023-01-29T14:37:52;1.20;99.90
15115;DHT22;7658;51.456;7.622;2023-01-29T14:43:08;1.10;99.90
15115;DHT22;7658;51.456;7.622;2023-01-29T14:45:45;1.10;99.90
15115;DHT22;7658;51.456;7.622;2023-01-29T14:50:38;1.10;99.90
15115;DHT22;7658;51.456;7.622;2023-01-29T14:56:00;1.20;99.90
15115;DHT22;7658;51.456;7.622;2023-01-29T15:01:15;1.20;99.90
15115;DHT22;7658;51.456;7.622;2023-01-29T15:03:45;1.10;99.90
15115;DHT22;7658;51.456;7.622;2023-01-29T15:17:57;1.10;99.90
15115;DHT22;7658;51.456;7.622;2023-01-29T15:20:42;1.10;99.90
15115;DHT22;7658;51.456;7.622;2023-01-29T15:23:30;1.10;99.90
15115;DHT22;7658;51.456;7.622;2023-01-29T15:25:59;1.20;99.90
15115;DHT22;7658;51.456;7.622;2023-01-29T15:28:28;1.20;99.90
15115;DHT22;7658;51.456;7.622;2023-01-29T15:31:03;1.10;99.90
15115;DHT22;7658;51.456;7.622;2023-01-29T15:33:30;1.10;99.90
15115;DHT22;7658;51.456;7.622;2023-01-29T15:35:58;1.10;99.90
15115;DHT22;7658;51.456;7.622;2023-01-29T15:38:24;1.10;99.90
15115;DHT22;7658;51.456;7.622;2023-01-29T15:40:57;1.10;99.90
15115;DHT22;7658;51.456;7.622;2023-01-29T15:43:33;1.10;99.90
15115;DHT22;7658;51.456;7.622;2023-01-29T15:46:29;1.10;99.90
15115;DHT22;7658;51.456;7.622;2023-01-29T15:49:08;1.10;99.90
15115;DHT22;7658;51.456;7.622;2023-01-29T15:51:45;1.10;99.90
15115;DHT22;7658;51.456;7.622;2023-01-29T15:54:16;1.10;99.90
15115;DHT22;7658;51.456;7.622;2023-01-29T15:56:49;1.10;99.90
15115;DHT22;7658;51.456;7.622;2023-01-29T15:59:18;1.10;99.90
15115;DHT22;7658;51.456;7.622;2023-01-29T16:01:44;1.10;99.90
15115;DHT22;7658;51.456;7.622;2023-01-29T16:04:17;1.20;99.90
15115;DHT22;7658;51.456;7.622;2023-01-29T16:06:45;1.20;99.90
15115;DHT22;7658;51.456;7.622;2023-01-29T16:09:17;1.20;99.90
15115;DHT22;7658;51.456;7.622;2023-01-29T16:11:45;1.10;99.90
15115;DHT22;7658;51.456;7.622;2023-01-29T16:14:16;1.10;99.90
15115;DHT22;7658;51.456;7.622;2023-01-29T16:16:43;1.10;99.90
15115;DHT22;7658;51.456;7.622;2023-01-29T16:19:22;1.10;99.90
15115;DHT22;7658;51.456;7.622;2023-01-29T16:21:54;1.10;99.90
15115;DHT22;7658;51.456;7.622;2023-01-29T16:24:21;1.10;99.90
15115;DHT22;7658;51.456;7.622;2023-01-29T16:26:51;1.20;99.90
15115;DHT22;7658;51.456;7.622;2023-01-29T16:29:22;1.10;99.90
15115;DHT22;7658;51.456;7.622;2023-01-29T16:31:52;1.10;99.90
15115;DHT22;7658;51.456;7.622;2023-01-29T16:36:53;1.20;99.90
15115;DHT22;7658;51.456;7.622;2023-01-29T16:39:23;1.20;99.90
15115;DHT22;7658;51.456;7.622;2023-01-29T16:52:55;1.20;99.90
15115;DHT22;7658;51.456;7.622;2023-01-29T16:55:23;1.20;99.90
15115;DHT22;7658;51.456;7.622;2023-01-29T16:57:54;1.20;99.90
15115;DHT22;7658;51.456;7.622;2023-01-29T17:00:29;1.20;99.90
15115;DHT22;7658;51.456;7.622;2023-01-29T17:03:04;1.20;99.90
15115;DHT22;7658;51.456;7.622;2023-01-29T17:05:33;1.30;99.90
15115;DHT22;7658;51.456;7.622;2023-01-29T17:08:00;1.20;99.90
15115;DHT22;7658;51.456;7.622;2023-01-29T17:10:28;1.20;99.90
15115;DHT22;7658;51.456;7.622;2023-01-29T17:13:06;1.30;99.90
15115;DHT22;7658;51.456;7.622;2023-01-29T17:15:50;1.30;99.90
15115;DHT22;7658;51.456;7.622;2023-01-29T17:18:21;1.30;99.90
15115;DHT22;7658;51.456;7.622;2023-01-29T17:20:48;1.20;99.90
15115;DHT22;7658;51.456;7.622;2023-01-29T17:23:14;1.20;99.90
15115;DHT22;7658;51.456;7.622;2023-01-29T17:25:40;1.20;99.90
15115;DHT22;7658;51.456;7.622;2023-01-29T17:28:06;1.20;99.90
15115;DHT22;7658;51.456;7.622;2023-01-29T17:30:33;1.30;99.90
15115;DHT22;7658;51.456;7.622;2023-01-29T17:33:11;1.30;99.90
15115;DHT22;7658;51.456;7.622;2023-01-29T17:35:38;1.30;99.90
15115;DHT22;7658;51.456;7.622;2023-01-29T17:38:04;1.30;99.90
15115;DHT22;7658;51.456;7.622;2023-01-29T17:40:35;1.30;99.90
15115;DHT22;7658;51.456;7.622;2023-01-29T17:43:02;1.30;99.90
15115;DHT22;7658;51.456;7.622;2023-01-29T17:45:28;1.30;99.90
15115;DHT22;7658;51.456;7.622;2023-01-29T17:47:53;1.30;99.90
15115;DHT22;7658;51.456;7.622;2023-01-29T17:50:25;1.30;99.90
15115;DHT22;7658;51.456;7.622;2023-01-29T17:52:51;1.40;99.90
15115;DHT22;7658;51.456;7.622;2023-01-29T17:55:20;1.40;99.90
15115;DHT22;7658;51.456;7.622;2023-01-29T17:57:46;1.40;99.90
15115;DHT22;7658;51.456;7.622;2023-01-29T18:00:17;1.40;99.90
15115;DHT22;7658;51.456;7.622;2023-01-29T18:02:43;1.40;99.90
15115;DHT22;7658;51.456;7.622;2023-01-29T18:05:12;1.40;99.90
15115;DHT22;7658;51.456;7.622;2023-01-29T18:07:42;1.40;99.90
15115;DHT22;7658;51.456;7.622;2023-01-29T18:10:19;1.40;99.90
15115;DHT22;7658;51.456;7.622;2023-01-29T18:12:45;1.40;99.90
15115;DHT22;7658;51.456;7.622;2023-01-29T18:15:12;1.50;99.90
15115;DHT22;7658;51.456;7.622;2023-01-29T18:17:38;1.50;99.90
15115;DHT22;7658;51.456;7.622;2023-01-29T18:20:31;1.50;99.90
15115;DHT22;7658;51.456;7.622;2023-01-29T18:23:01;1.50;99.90
15115;DHT22;7658;51.456;7.622;2023-01-29T18:25:29;1.50;99.90
15115;DHT22;7658;51.456;7.622;2023-01-29T18:27:55;1.50;99.90
15115;DHT22;7658;51.456;7.622;2023-01-29T18:30:21;1.50;99.90
15115;DHT22;7658;51.456;7.622;2023-01-29T18:32:47;1.40;99.90
15115;DHT22;7658;51.456;7.622;2023-01-29T18:35:14;1.40;99.90
15115;DHT22;7658;51.456;7.622;2023-01-29T18:37:42;1.40;99.90
15115;DHT22;7658;51.456;7.622;2023-01-29T18:40:11;1.40;99.90
15115;DHT22;7658;51.456;7.622;2023-01-29T18:42:39;1.40;99.90
15115;DHT22;7658;51.456;7.622;2023-01-29T18:45:06;1.40;99.90
15115;DHT22;7658;51.456;7.622;2023-01-29T18:47:32;1.40;99.90
15115;DHT22;7658;51.456;7.622;2023-01-29T18:49:57;1.30;99.90
15115;DHT22;7658;51.456;7.622;2023-01-29T18:52:23;1.30;99.90
15115;DHT22;7658;51.456;7.622;2023-01-29T18:54:51;1.30;99.90
15115;DHT22;7658;51.456;7.622;2023-01-29T18:57:17;1.30;99.90
15115;DHT22;7658;51.456;7.622;2023-01-29T18:59:43;1.30;99.90
15115;DHT22;7658;51.456;7.622;2023-01-29T19:02:13;1.30;99.90
15115;DHT22;7658;51.456;7.622;2023-01-29T19:04:40;1.30;99.90